sensor_id;sensor_type;location;lat;lon;timestamp;temperature;humidity
64843;DHT22;51310;52.198;5.422;2022-08-14T00:00:54;22.00;28.10
64843;DHT22;51310;52.198;5.422;2022-08-14T00:03:29;22.00;28.20
64843;DHT22;51310;52.198;5.422;2022-08-14T00:08:25;22.10;28.40
64843;DHT22;51310;52.198;5.422;2022-08-14T00:10:51;22.00;28.70
64843;DHT22;51310;52.198;5.422;2022-08-14T00:13:20;22.10;28.60
64843;DHT22;51310;52.198;5.422;2022-08-14T00:15:54;22.20;28.80
64843;DHT22;51310;52.198;5.422;2022-08-14T00:18:23;22.20;28.60
64843;DHT22;51310;52.198;5.422;2022-08-14T00:20:52;22.20;28.60
64843;DHT22;51310;52.198;5.422;2022-08-14T00:23:19;22.20;28.80
64843;DHT22;51310;52.198;5.422;2022-08-14T00:25:49;22.10;29.20
64843;DHT22;51310;52.198;5.422;2022-08-14T00:28:17;22.10;29.30
64843;DHT22;51310;52.198;5.422;2022-08-14T00:30:46;24.40;30.30
64843;DHT22;51310;52.198;5.422;2022-08-14T00:35:39;22.00;29.70
64843;DHT22;51310;52.198;5.422;2022-08-14T00:38:04;21.90;30.00
64843;DHT22;51310;52.198;5.422;2022-08-14T00:40:30;22.00;30.00
64843;DHT22;51310;52.198;5.422;2022-08-14T00:42:56;21.90;30.30
64843;DHT22;51310;52.198;5.422;2022-08-14T00:45:22;21.90;30.60
64843;DHT22;51310;52.198;5.422;2022-08-14T00:47:52;21.80;30.70
64843;DHT22;51310;52.198;5.422;2022-08-14T00:50:22;21.90;30.80
64843;DHT22;51310;52.198;5.422;2022-08-14T00:52:50;21.80;31.20
64843;DHT22;51310;52.198;5.422;2022-08-14T00:55:18;21.80;31.00
64843;DHT22;51310;52.198;5.422;2022-08-14T00:57:46;21.80;31.10
64843;DHT22;51310;52.198;5.422;2022-08-14T01:00:36;21.80;31.20
64843;DHT22;51310;52.198;5.422;2022-08-14T01:03:05;21.80;31.70
64843;DHT22;51310;52.198;5.422;2022-08-14T01:05:33;21.70;31.70
64843;DHT22;51310;52.198;5.422;2022-08-14T01:08:00;21.70;32.20
64843;DHT22;51310;52.198;5.422;2022-08-14T01:10:28;21.60;32.20
64843;DHT22;51310;52.198;5.422;2022-08-14T01:13:25;21.50;32.80
64843;DHT22;51310;52.198;5.422;2022-08-14T01:15:56;21.60;32.90
64843;DHT22;51310;52.198;5.422;2022-08-14T01:18:27;21.50;33.30
64843;DHT22;51310;52.198;5.422;2022-08-14T01:21:14;21.50;33.60
64843;DHT22;51310;52.198;5.422;2022-08-14T01:23:47;21.40;33.80
64843;DHT22;51310;52.198;5.422;2022-08-14T01:26:19;21.50;34.00
64843;DHT22;51310;52.198;5.422;2022-08-14T01:28:49;21.40;34.10
64843;DHT22;51310;52.198;5.422;2022-08-14T01:33:52;21.30;35.00
64843;DHT22;51310;52.198;5.422;2022-08-14T01:36:23;21.30;35.10
64843;DHT22;51310;52.198;5.422;2022-08-14T01:38:52;21.20;35.40
64843;DHT22;51310;52.198;5.422;2022-08-14T01:41:25;21.20;35.60
64843;DHT22;51310;52.198;5.422;2022-08-14T01:43:59;21.20;35.50
64843;DHT22;51310;52.198;5.422;2022-08-14T01:46:35;21.20;36.00
64843;DHT22;51310;52.198;5.422;2022-08-14T01:49:06;21.20;35.80
64843;DHT22;51310;52.198;5.422;2022-08-14T01:51:38;21.20;36.00
64843;DHT22;51310;52.198;5.422;2022-08-14T01:54:08;21.00;36.50
64843;DHT22;51310;52.198;5.422;2022-08-14T02:01:52;21.10;36.60
64843;DHT22;51310;52.198;5.422;2022-08-14T02:04:22;21.10;36.60
64843;DHT22;51310;52.198;5.422;2022-08-14T02:06:51;21.10;37.10
64843;DHT22;51310;52.198;5.422;2022-08-14T02:09:19;21.10;37.10
64843;DHT22;51310;52.198;5.422;2022-08-14T02:11:51;21.00;37.40
64843;DHT22;51310;52.198;5.422;2022-08-14T02:14:17;20.90;37.80
64843;DHT22;51310;52.198;5.422;2022-08-14T02:16:46;20.90;38.00
64843;DHT22;51310;52.198;5.422;2022-08-14T02:19:21;20.90;38.10
64843;DHT22;51310;52.198;5.422;2022-08-14T02:21:53;20.90;38.20
64843;DHT22;51310;52.198;5.422;2022-08-14T02:24:25;20.90;38.30
64843;DHT22;51310;52.198;5.422;2022-08-14T02:26:57;20.90;38.30
64843;DHT22;51310;52.198;5.422;2022-08-14T02:29:29;20.90;38.30
64843;DHT22;51310;52.198;5.422;2022-08-14T02:31:58;20.80;38.60
64843;DHT22;51310;52.198;5.422;2022-08-14T02:34:29;20.80;38.80
64843;DHT22;51310;52.198;5.422;2022-08-14T02:37:03;20.80;38.80
64843;DHT22;51310;52.198;5.422;2022-08-14T02:39:39;20.80;39.10
64843;DHT22;51310;52.198;5.422;2022-08-14T02:42:12;20.80;39.20
64843;DHT22;51310;52.198;5.422;2022-08-14T02:44:43;20.70;39.30
64843;DHT22;51310;52.198;5.422;2022-08-14T02:47:10;20.60;39.80
64843;DHT22;51310;52.198;5.422;2022-08-14T02:49:37;20.50;40.60
64843;DHT22;51310;52.198;5.422;2022-08-14T02:52:04;20.50;40.60
64843;DHT22;51310;52.198;5.422;2022-08-14T02:54:32;20.40;41.20
64843;DHT22;51310;52.198;5.422;2022-08-14T02:57:00;20.40;41.00
64843;DHT22;51310;52.198;5.422;2022-08-14T02:59:30;20.40;41.10
64843;DHT22;51310;52.198;5.422;2022-08-14T03:01:59;20.30;41.50
64843;DHT22;51310;52.198;5.422;2022-08-14T03:06:55;20.30;41.90
64843;DHT22;51310;52.198;5.422;2022-08-14T03:09:22;20.30;42.00
64843;DHT22;51310;52.198;5.422;2022-08-14T03:11:48;20.20;42.30
64843;DHT22;51310;52.198;5.422;2022-08-14T03:14:17;20.10;42.80
64843;DHT22;51310;52.198;5.422;2022-08-14T03:16:45;20.10;43.30
64843;DHT22;51310;52.198;5.422;2022-08-14T03:19:13;20.00;43.70
64843;DHT22;51310;52.198;5.422;2022-08-14T03:21:39;20.00;44.00
64843;DHT22;51310;52.198;5.422;2022-08-14T03:24:06;20.00;44.20
64843;DHT22;51310;52.198;5.422;2022-08-14T03:26:40;20.00;44.60
64843;DHT22;51310;52.198;5.422;2022-08-14T03:29:12;20.00;44.50
64843;DHT22;51310;52.198;5.422;2022-08-14T03:31:44;20.00;44.70
64843;DHT22;51310;52.198;5.422;2022-08-14T03:34:11;19.90;44.70
64843;DHT22;51310;52.198;5.422;2022-08-14T03:36:37;19.90;45.20
64843;DHT22;51310;52.198;5.422;2022-08-14T03:39:07;19.90;45.20
64843;DHT22;51310;52.198;5.422;2022-08-14T03:41:34;19.90;45.60
64843;DHT22;51310;52.198;5.422;2022-08-14T03:44:02;19.90;45.90
64843;DHT22;51310;52.198;5.422;2022-08-14T03:46:33;19.80;45.80
64843;DHT22;51310;52.198;5.422;2022-08-14T03:49:02;19.80;46.30
64843;DHT22;51310;52.198;5.422;2022-08-14T03:51:30;19.80;46.50
64843;DHT22;51310;52.198;5.422;2022-08-14T03:53:59;19.80;46.50
64843;DHT22;51310;52.198;5.422;2022-08-14T03:56:34;19.70;46.90
64843;DHT22;51310;52.198;5.422;2022-08-14T03:59:08;19.70;47.10
64843;DHT22;51310;52.198;5.422;2022-08-14T04:01:36;19.70;47.50
64843;DHT22;51310;52.198;5.422;2022-08-14T04:04:04;19.60;47.70
64843;DHT22;51310;52.198;5.422;2022-08-14T04:06:32;19.60;48.00
64843;DHT22;51310;52.198;5.422;2022-08-14T04:09:00;19.60;48.10
64843;DHT22;51310;52.198;5.422;2022-08-14T04:11:26;19.50;48.50
64843;DHT22;51310;52.198;5.422;2022-08-14T04:13:53;19.50;48.70
64843;DHT22;51310;52.198;5.422;2022-08-14T04:16:20;19.50;49.00
64843;DHT22;51310;52.198;5.422;2022-08-14T04:21:21;19.50;49.30
64843;DHT22;51310;52.198;5.422;2022-08-14T04:23:54;19.50;49.60
64843;DHT22;51310;52.198;5.422;2022-08-14T04:26:23;19.40;49.90
64843;DHT22;51310;52.198;5.422;2022-08-14T04:28:53;19.30;50.30
64843;DHT22;51310;52.198;5.422;2022-08-14T04:31:20;19.30;50.40
64843;DHT22;51310;52.198;5.422;2022-08-14T04:33:51;19.30;50.70
64843;DHT22;51310;52.198;5.422;2022-08-14T04:36:18;19.30;51.00
64843;DHT22;51310;52.198;5.422;2022-08-14T04:38:47;19.30;51.20
64843;DHT22;51310;52.198;5.422;2022-08-14T04:41:32;19.30;51.20
64843;DHT22;51310;52.198;5.422;2022-08-14T04:44:16;19.20;52.20
64843;DHT22;51310;52.198;5.422;2022-08-14T04:49:29;19.20;52.40
64843;DHT22;51310;52.198;5.422;2022-08-14T04:51:55;19.20;52.50
64843;DHT22;51310;52.198;5.422;2022-08-14T04:54:21;19.20;52.50
64843;DHT22;51310;52.198;5.422;2022-08-14T04:56:51;19.30;52.50
64843;DHT22;51310;52.198;5.422;2022-08-14T04:59:23;19.30;52.50
64843;DHT22;51310;52.198;5.422;2022-08-14T05:04:19;19.30;53.00
64843;DHT22;51310;52.198;5.422;2022-08-14T05:06:47;19.30;52.80
64843;DHT22;51310;52.198;5.422;2022-08-14T05:11:43;19.30;53.10
64843;DHT22;51310;52.198;5.422;2022-08-14T05:14:11;19.40;52.80
64843;DHT22;51310;52.198;5.422;2022-08-14T05:16:37;19.60;52.30
64843;DHT22;51310;52.198;5.422;2022-08-14T05:19:02;19.70;52.00
64843;DHT22;51310;52.198;5.422;2022-08-14T05:21:29;19.90;51.00
64843;DHT22;51310;52.198;5.422;2022-08-14T05:23:55;20.10;50.80
64843;DHT22;51310;52.198;5.422;2022-08-14T05:26:20;20.20;49.50
64843;DHT22;51310;52.198;5.422;2022-08-14T05:28:47;20.40;48.20
64843;DHT22;51310;52.198;5.422;2022-08-14T05:31:14;20.50;47.90
64843;DHT22;51310;52.198;5.422;2022-08-14T05:33:43;20.70;47.20
64843;DHT22;51310;52.198;5.422;2022-08-14T05:36:11;20.80;46.60
64843;DHT22;51310;52.198;5.422;2022-08-14T05:38:42;20.90;46.20
64843;DHT22;51310;52.198;5.422;2022-08-14T05:41:14;21.00;45.90
64843;DHT22;51310;52.198;5.422;2022-08-14T05:43:45;21.00;45.70
64843;DHT22;51310;52.198;5.422;2022-08-14T05:46:16;21.20;44.90
64843;DHT22;51310;52.198;5.422;2022-08-14T05:48:53;21.20;45.50
64843;DHT22;51310;52.198;5.422;2022-08-14T05:51:22;21.20;45.30
64843;DHT22;51310;52.198;5.422;2022-08-14T05:53:50;21.40;44.40
64843;DHT22;51310;52.198;5.422;2022-08-14T05:56:16;21.40;45.20
64843;DHT22;51310;52.198;5.422;2022-08-14T05:58:42;21.50;44.70
64843;DHT22;51310;52.198;5.422;2022-08-14T06:03:35;21.50;44.60
64843;DHT22;51310;52.198;5.422;2022-08-14T06:06:01;21.70;44.20
64843;DHT22;51310;52.198;5.422;2022-08-14T06:08:29;21.80;43.50
64843;DHT22;51310;52.198;5.422;2022-08-14T06:10:59;21.80;43.70
64843;DHT22;51310;52.198;5.422;2022-08-14T06:13:34;21.80;43.70
64843;DHT22;51310;52.198;5.422;2022-08-14T06:16:04;21.70;44.40
64843;DHT22;51310;52.198;5.422;2022-08-14T06:18:31;21.70;44.60
64843;DHT22;51310;52.198;5.422;2022-08-14T06:21:00;21.80;44.80
64843;DHT22;51310;52.198;5.422;2022-08-14T06:23:27;21.70;46.50
64843;DHT22;51310;52.198;5.422;2022-08-14T06:25:53;21.70;46.00
64843;DHT22;51310;52.198;5.422;2022-08-14T06:28:25;21.70;46.20
64843;DHT22;51310;52.198;5.422;2022-08-14T06:30:52;21.80;47.10
64843;DHT22;51310;52.198;5.422;2022-08-14T06:35:46;22.00;48.30
64843;DHT22;51310;52.198;5.422;2022-08-14T06:38:23;22.00;46.90
64843;DHT22;51310;52.198;5.422;2022-08-14T06:40:51;22.10;46.00
64843;DHT22;51310;52.198;5.422;2022-08-14T06:45:48;22.20;45.00
64843;DHT22;51310;52.198;5.422;2022-08-14T06:48:18;22.20;45.20
64843;DHT22;51310;52.198;5.422;2022-08-14T06:50:52;22.40;44.30
64843;DHT22;51310;52.198;5.422;2022-08-14T06:53:21;22.40;44.60
64843;DHT22;51310;52.198;5.422;2022-08-14T06:55:48;22.50;43.70
64843;DHT22;51310;52.198;5.422;2022-08-14T06:58:17;22.60;43.20
64843;DHT22;51310;52.198;5.422;2022-08-14T07:00:44;22.70;43.40
64843;DHT22;51310;52.198;5.422;2022-08-14T07:03:31;22.90;42.10
64843;DHT22;51310;52.198;5.422;2022-08-14T07:06:16;22.90;42.30
64843;DHT22;51310;52.198;5.422;2022-08-14T07:08:43;22.90;41.50
64843;DHT22;51310;52.198;5.422;2022-08-14T07:11:10;23.00;41.70
64843;DHT22;51310;52.198;5.422;2022-08-14T07:13:37;23.00;41.50
64843;DHT22;51310;52.198;5.422;2022-08-14T07:16:04;23.20;41.40
64843;DHT22;51310;52.198;5.422;2022-08-14T07:18:32;23.30;41.00
64843;DHT22;51310;52.198;5.422;2022-08-14T07:21:01;23.50;40.60
64843;DHT22;51310;52.198;5.422;2022-08-14T07:23:30;23.50;40.20
64843;DHT22;51310;52.198;5.422;2022-08-14T07:25:57;23.70;40.30
64843;DHT22;51310;52.198;5.422;2022-08-14T07:28:30;23.80;39.30
64843;DHT22;51310;52.198;5.422;2022-08-14T07:31:05;23.80;40.20
64843;DHT22;51310;52.198;5.422;2022-08-14T07:36:14;24.00;38.60
64843;DHT22;51310;52.198;5.422;2022-08-14T07:38:41;24.10;37.90
64843;DHT22;51310;52.198;5.422;2022-08-14T07:41:09;24.10;38.30
64843;DHT22;51310;52.198;5.422;2022-08-14T07:43:37;24.20;37.90
64843;DHT22;51310;52.198;5.422;2022-08-14T07:46:07;24.30;37.10
64843;DHT22;51310;52.198;5.422;2022-08-14T07:48:40;24.50;37.10
64843;DHT22;51310;52.198;5.422;2022-08-14T07:51:08;24.60;36.50
64843;DHT22;51310;52.198;5.422;2022-08-14T07:53:34;24.70;37.00
64843;DHT22;51310;52.198;5.422;2022-08-14T07:56:01;24.70;35.30
64843;DHT22;51310;52.198;5.422;2022-08-14T07:58:26;24.70;35.50
64843;DHT22;51310;52.198;5.422;2022-08-14T08:00:55;24.70;35.00
64843;DHT22;51310;52.198;5.422;2022-08-14T08:03:23;24.90;35.00
64843;DHT22;51310;52.198;5.422;2022-08-14T08:05:51;24.80;34.40
64843;DHT22;51310;52.198;5.422;2022-08-14T08:08:19;24.90;34.70
64843;DHT22;51310;52.198;5.422;2022-08-14T08:10:46;25.00;35.10
64843;DHT22;51310;52.198;5.422;2022-08-14T08:13:16;25.10;34.80
64843;DHT22;51310;52.198;5.422;2022-08-14T08:15:48;25.20;34.40
64843;DHT22;51310;52.198;5.422;2022-08-14T08:18:21;25.40;34.20
64843;DHT22;51310;52.198;5.422;2022-08-14T08:20:50;25.50;33.40
64843;DHT22;51310;52.198;5.422;2022-08-14T08:23:22;25.40;33.60
64843;DHT22;51310;52.198;5.422;2022-08-14T08:25:51;25.60;32.90
64843;DHT22;51310;52.198;5.422;2022-08-14T08:28:22;25.60;33.30
64843;DHT22;51310;52.198;5.422;2022-08-14T08:30:57;25.70;33.00
64843;DHT22;51310;52.198;5.422;2022-08-14T08:33:32;25.70;33.30
64843;DHT22;51310;52.198;5.422;2022-08-14T08:36:07;25.70;33.90
64843;DHT22;51310;52.198;5.422;2022-08-14T08:38:37;25.70;32.90
64843;DHT22;51310;52.198;5.422;2022-08-14T08:41:03;25.70;32.90
64843;DHT22;51310;52.198;5.422;2022-08-14T08:43:31;25.70;32.60
64843;DHT22;51310;52.198;5.422;2022-08-14T08:46:05;25.80;32.90
64843;DHT22;51310;52.198;5.422;2022-08-14T08:48:47;25.90;32.90
64843;DHT22;51310;52.198;5.422;2022-08-14T08:51:26;26.00;31.60
64843;DHT22;51310;52.198;5.422;2022-08-14T09:02:01;26.40;31.00
64843;DHT22;51310;52.198;5.422;2022-08-14T09:04:36;26.50;30.80
64843;DHT22;51310;52.198;5.422;2022-08-14T09:07:08;26.60;29.90
64843;DHT22;51310;52.198;5.422;2022-08-14T09:09:36;26.50;29.30
64843;DHT22;51310;52.198;5.422;2022-08-14T09:12:16;26.60;29.90
64843;DHT22;51310;52.198;5.422;2022-08-14T09:14:44;26.70;29.50
64843;DHT22;51310;52.198;5.422;2022-08-14T09:17:13;26.90;28.90
64843;DHT22;51310;52.198;5.422;2022-08-14T09:19:39;27.00;28.70
64843;DHT22;51310;52.198;5.422;2022-08-14T09:22:06;26.90;28.70
64843;DHT22;51310;52.198;5.422;2022-08-14T09:24:32;27.00;29.10
64843;DHT22;51310;52.198;5.422;2022-08-14T09:26:58;27.30;29.90
64843;DHT22;51310;52.198;5.422;2022-08-14T09:29:24;27.40;29.30
64843;DHT22;51310;52.198;5.422;2022-08-14T09:31:56;27.50;27.20
64843;DHT22;51310;52.198;5.422;2022-08-14T09:35:02;27.60;27.60
64843;DHT22;51310;52.198;5.422;2022-08-14T09:40:38;27.70;27.00
64843;DHT22;51310;52.198;5.422;2022-08-14T09:46:31;27.70;26.90
64843;DHT22;51310;52.198;5.422;2022-08-14T09:49:00;27.70;25.80
64843;DHT22;51310;52.198;5.422;2022-08-14T09:51:32;27.80;25.20
64843;DHT22;51310;52.198;5.422;2022-08-14T09:54:06;27.90;26.10
64843;DHT22;51310;52.198;5.422;2022-08-14T09:56:49;28.00;25.10
64843;DHT22;51310;52.198;5.422;2022-08-14T09:59:17;28.00;24.80
64843;DHT22;51310;52.198;5.422;2022-08-14T10:01:47;28.00;24.80
64843;DHT22;51310;52.198;5.422;2022-08-14T10:04:23;28.20;24.60
64843;DHT22;51310;52.198;5.422;2022-08-14T10:06:53;28.40;24.50
64843;DHT22;51310;52.198;5.422;2022-08-14T10:09:19;28.50;25.00
64843;DHT22;51310;52.198;5.422;2022-08-14T10:11:54;28.60;24.00
64843;DHT22;51310;52.198;5.422;2022-08-14T10:14:24;28.60;24.10
64843;DHT22;51310;52.198;5.422;2022-08-14T10:16:56;28.50;23.50
64843;DHT22;51310;52.198;5.422;2022-08-14T10:19:25;28.40;22.90
64843;DHT22;51310;52.198;5.422;2022-08-14T10:22:08;28.20;23.10
64843;DHT22;51310;52.198;5.422;2022-08-14T10:24:39;28.60;22.70
64843;DHT22;51310;52.198;5.422;2022-08-14T10:27:21;28.60;22.90
64843;DHT22;51310;52.198;5.422;2022-08-14T10:29:52;28.30;21.40
64843;DHT22;51310;52.198;5.422;2022-08-14T10:32:23;28.70;21.70
64843;DHT22;51310;52.198;5.422;2022-08-14T10:34:50;28.70;20.90
64843;DHT22;51310;52.198;5.422;2022-08-14T10:37:49;28.90;21.90
64843;DHT22;51310;52.198;5.422;2022-08-14T10:40:28;29.00;20.60
64843;DHT22;51310;52.198;5.422;2022-08-14T10:42:56;28.90;21.60
64843;DHT22;51310;52.198;5.422;2022-08-14T10:45:30;28.90;21.60
64843;DHT22;51310;52.198;5.422;2022-08-14T10:47:58;28.90;20.60
64843;DHT22;51310;52.198;5.422;2022-08-14T10:50:32;29.00;19.60
64843;DHT22;51310;52.198;5.422;2022-08-14T10:53:01;29.20;19.10
64843;DHT22;51310;52.198;5.422;2022-08-14T10:55:35;29.30;18.20
64843;DHT22;51310;52.198;5.422;2022-08-14T10:58:07;26.60;16.40
64843;DHT22;51310;52.198;5.422;2022-08-14T11:00:39;29.20;18.40
64843;DHT22;51310;52.198;5.422;2022-08-14T11:03:07;29.30;18.80
64843;DHT22;51310;52.198;5.422;2022-08-14T11:05:49;29.60;17.50
64843;DHT22;51310;52.198;5.422;2022-08-14T11:08:29;29.80;16.60
64843;DHT22;51310;52.198;5.422;2022-08-14T11:10:58;29.70;17.60
64843;DHT22;51310;52.198;5.422;2022-08-14T11:13:28;29.90;16.40
64843;DHT22;51310;52.198;5.422;2022-08-14T11:15:58;30.00;15.80
64843;DHT22;51310;52.198;5.422;2022-08-14T11:18:28;30.00;16.00
64843;DHT22;51310;52.198;5.422;2022-08-14T11:20:58;30.10;16.30
64843;DHT22;51310;52.198;5.422;2022-08-14T11:25:56;30.30;15.40
64843;DHT22;51310;52.198;5.422;2022-08-14T11:28:26;30.40;15.10
64843;DHT22;51310;52.198;5.422;2022-08-14T11:30:58;30.40;15.80
64843;DHT22;51310;52.198;5.422;2022-08-14T11:33:26;30.70;14.70
64843;DHT22;51310;52.198;5.422;2022-08-14T11:35:57;30.50;15.30
64843;DHT22;51310;52.198;5.422;2022-08-14T11:38:27;30.60;15.80
64843;DHT22;51310;52.198;5.422;2022-08-14T11:41:01;30.40;16.30
64843;DHT22;51310;52.198;5.422;2022-08-14T11:43:26;30.50;15.30
64843;DHT22;51310;52.198;5.422;2022-08-14T11:45:53;30.80;13.00
64843;DHT22;51310;52.198;5.422;2022-08-14T11:48:25;31.00;13.40
64843;DHT22;51310;52.198;5.422;2022-08-14T11:50:52;30.90;12.70
64843;DHT22;51310;52.198;5.422;2022-08-14T11:55:54;30.60;13.60
64843;DHT22;51310;52.198;5.422;2022-08-14T11:58:28;30.40;12.50
64843;DHT22;51310;52.198;5.422;2022-08-14T12:00:58;30.20;13.60
64843;DHT22;51310;52.198;5.422;2022-08-14T12:06:09;30.30;12.80
64843;DHT22;51310;52.198;5.422;2022-08-14T12:08:40;30.90;13.30
64843;DHT22;51310;52.198;5.422;2022-08-14T12:11:11;31.00;13.10
64843;DHT22;51310;52.198;5.422;2022-08-14T12:13:40;31.00;11.60
64843;DHT22;51310;52.198;5.422;2022-08-14T12:16:10;31.00;11.00
64843;DHT22;51310;52.198;5.422;2022-08-14T12:18:43;30.50;11.60
64843;DHT22;51310;52.198;5.422;2022-08-14T12:21:23;30.40;10.40
64843;DHT22;51310;52.198;5.422;2022-08-14T12:24:05;30.50;10.30
64843;DHT22;51310;52.198;5.422;2022-08-14T12:26:34;30.50;10.70
64843;DHT22;51310;52.198;5.422;2022-08-14T12:29:14;30.20;11.50
64843;DHT22;51310;52.198;5.422;2022-08-14T12:31:41;30.20;12.90
64843;DHT22;51310;52.198;5.422;2022-08-14T12:34:12;30.10;13.00
64843;DHT22;51310;52.198;5.422;2022-08-14T12:36:42;30.20;12.80
64843;DHT22;51310;52.198;5.422;2022-08-14T12:39:21;30.20;13.10
64843;DHT22;51310;52.198;5.422;2022-08-14T12:41:57;30.20;13.20
64843;DHT22;51310;52.198;5.422;2022-08-14T12:44:38;30.30;14.00
64843;DHT22;51310;52.198;5.422;2022-08-14T12:47:11;30.70;12.50
64843;DHT22;51310;52.198;5.422;2022-08-14T12:49:51;30.60;11.90
64843;DHT22;51310;52.198;5.422;2022-08-14T12:52:37;30.70;11.70
64843;DHT22;51310;52.198;5.422;2022-08-14T12:55:14;30.60;12.10
64843;DHT22;51310;52.198;5.422;2022-08-14T12:57:44;30.70;12.40
64843;DHT22;51310;52.198;5.422;2022-08-14T13:00:23;30.70;12.70
64843;DHT22;51310;52.198;5.422;2022-08-14T13:02:52;30.70;13.00
64843;DHT22;51310;52.198;5.422;2022-08-14T13:05:22;30.60;12.60
64843;DHT22;51310;52.198;5.422;2022-08-14T13:07:51;30.80;12.70
64843;DHT22;51310;52.198;5.422;2022-08-14T13:10:19;30.80;12.60
64843;DHT22;51310;52.198;5.422;2022-08-14T13:12:47;31.00;13.30
64843;DHT22;51310;52.198;5.422;2022-08-14T13:15:20;31.20;12.60
64843;DHT22;51310;52.198;5.422;2022-08-14T13:17:50;31.40;12.60
64843;DHT22;51310;52.198;5.422;2022-08-14T13:22:50;31.20;11.00
64843;DHT22;51310;52.198;5.422;2022-08-14T13:30:24;31.20;11.50
64843;DHT22;51310;52.198;5.422;2022-08-14T13:32:53;31.30;10.50
64843;DHT22;51310;52.198;5.422;2022-08-14T13:35:22;31.40;12.20
64843;DHT22;51310;52.198;5.422;2022-08-14T13:37:49;31.70;11.30
64843;DHT22;51310;52.198;5.422;2022-08-14T13:40:17;32.10;11.30
64843;DHT22;51310;52.198;5.422;2022-08-14T13:42:51;32.00;10.60
64843;DHT22;51310;52.198;5.422;2022-08-14T13:45:18;32.30;10.90
64843;DHT22;51310;52.198;5.422;2022-08-14T13:50:19;32.90;10.00
64843;DHT22;51310;52.198;5.422;2022-08-14T13:55:25;33.00;10.20
64843;DHT22;51310;52.198;5.422;2022-08-14T13:57:56;33.00;9.80
64843;DHT22;51310;52.198;5.422;2022-08-14T14:00:26;32.90;9.80
64843;DHT22;51310;52.198;5.422;2022-08-14T14:02:53;32.70;9.20
64843;DHT22;51310;52.198;5.422;2022-08-14T14:05:21;32.40;8.90
64843;DHT22;51310;52.198;5.422;2022-08-14T14:07:50;32.00;9.40
64843;DHT22;51310;52.198;5.422;2022-08-14T14:10:21;31.70;9.70
64843;DHT22;51310;52.198;5.422;2022-08-14T14:12:48;31.50;9.40
64843;DHT22;51310;52.198;5.422;2022-08-14T14:15:20;31.30;11.40
64843;DHT22;51310;52.198;5.422;2022-08-14T14:17:46;31.20;12.30
64843;DHT22;51310;52.198;5.422;2022-08-14T14:20:16;31.10;11.80
64843;DHT22;51310;52.198;5.422;2022-08-14T14:27:11;31.20;12.80
64843;DHT22;51310;52.198;5.422;2022-08-14T14:29:41;31.60;13.70
64843;DHT22;51310;52.198;5.422;2022-08-14T14:32:16;31.00;13.10
64843;DHT22;51310;52.198;5.422;2022-08-14T14:34:43;31.10;12.50
64843;DHT22;51310;52.198;5.422;2022-08-14T14:37:11;31.20;13.40
64843;DHT22;51310;52.198;5.422;2022-08-14T14:39:40;31.50;13.60
64843;DHT22;51310;52.198;5.422;2022-08-14T14:42:07;31.40;12.50
64843;DHT22;51310;52.198;5.422;2022-08-14T14:44:37;31.30;13.00
64843;DHT22;51310;52.198;5.422;2022-08-14T14:49:41;31.40;13.30
64843;DHT22;51310;52.198;5.422;2022-08-14T14:52:08;31.40;13.40
64843;DHT22;51310;52.198;5.422;2022-08-14T14:54:35;31.30;14.20
64843;DHT22;51310;52.198;5.422;2022-08-14T14:57:03;31.10;13.80
64843;DHT22;51310;52.198;5.422;2022-08-14T14:59:31;31.20;14.20
64843;DHT22;51310;52.198;5.422;2022-08-14T15:04:36;30.80;14.90
64843;DHT22;51310;52.198;5.422;2022-08-14T15:07:04;30.50;15.40
64843;DHT22;51310;52.198;5.422;2022-08-14T15:11:59;30.30;15.10
64843;DHT22;51310;52.198;5.422;2022-08-14T15:14:25;30.50;14.90
64843;DHT22;51310;52.198;5.422;2022-08-14T15:16:50;30.50;15.30
64843;DHT22;51310;52.198;5.422;2022-08-14T15:21:43;30.30;15.30
64843;DHT22;51310;52.198;5.422;2022-08-14T15:24:09;30.40;14.70
64843;DHT22;51310;52.198;5.422;2022-08-14T15:26:35;30.30;14.70
64843;DHT22;51310;52.198;5.422;2022-08-14T15:31:30;30.50;15.20
64843;DHT22;51310;52.198;5.422;2022-08-14T15:33:56;30.40;14.40
64843;DHT22;51310;52.198;5.422;2022-08-14T15:36:40;30.40;14.90
64843;DHT22;51310;52.198;5.422;2022-08-14T15:39:10;30.50;15.20
64843;DHT22;51310;52.198;5.422;2022-08-14T15:44:04;30.40;14.10
64843;DHT22;51310;52.198;5.422;2022-08-14T15:46:32;30.50;13.30
64843;DHT22;51310;52.198;5.422;2022-08-14T15:48:59;30.50;13.40
64843;DHT22;51310;52.198;5.422;2022-08-14T15:51:26;30.50;13.80
64843;DHT22;51310;52.198;5.422;2022-08-14T15:53:56;30.60;13.40
64843;DHT22;51310;52.198;5.422;2022-08-14T15:56:23;30.60;13.70
64843;DHT22;51310;52.198;5.422;2022-08-14T16:01:16;30.70;12.70
64843;DHT22;51310;52.198;5.422;2022-08-14T16:03:50;30.60;13.20
64843;DHT22;51310;52.198;5.422;2022-08-14T16:06:26;30.60;13.80
64843;DHT22;51310;52.198;5.422;2022-08-14T16:08:57;30.60;14.50
64843;DHT22;51310;52.198;5.422;2022-08-14T16:11:23;30.70;15.00
64843;DHT22;51310;52.198;5.422;2022-08-14T16:13:50;30.70;15.60
64843;DHT22;51310;52.198;5.422;2022-08-14T16:16:19;30.60;15.80
64843;DHT22;51310;52.198;5.422;2022-08-14T16:18:50;30.70;15.40
64843;DHT22;51310;52.198;5.422;2022-08-14T16:21:19;30.60;15.60
64843;DHT22;51310;52.198;5.422;2022-08-14T16:23:47;30.70;15.70
64843;DHT22;51310;52.198;5.422;2022-08-14T16:26:21;30.50;16.10
64843;DHT22;51310;52.198;5.422;2022-08-14T16:31:40;30.40;16.30
64843;DHT22;51310;52.198;5.422;2022-08-14T16:34:09;30.40;16.00
64843;DHT22;51310;52.198;5.422;2022-08-14T16:36:36;30.20;16.60
64843;DHT22;51310;52.198;5.422;2022-08-14T16:39:05;30.20;17.20
64843;DHT22;51310;52.198;5.422;2022-08-14T16:41:33;30.30;18.10
64843;DHT22;51310;52.198;5.422;2022-08-14T16:44:03;30.30;17.90
64843;DHT22;51310;52.198;5.422;2022-08-14T16:46:40;30.20;18.30
64843;DHT22;51310;52.198;5.422;2022-08-14T16:49:09;30.20;18.10
64843;DHT22;51310;52.198;5.422;2022-08-14T16:51:39;30.30;17.70
64843;DHT22;51310;52.198;5.422;2022-08-14T16:54:09;30.10;17.60
64843;DHT22;51310;52.198;5.422;2022-08-14T16:56:42;29.90;17.80
64843;DHT22;51310;52.198;5.422;2022-08-14T16:59:10;29.80;16.90
64843;DHT22;51310;52.198;5.422;2022-08-14T17:01:42;29.70;17.70
64843;DHT22;51310;52.198;5.422;2022-08-14T17:06:48;29.80;18.60
64843;DHT22;51310;52.198;5.422;2022-08-14T17:12:17;29.70;19.70
64843;DHT22;51310;52.198;5.422;2022-08-14T17:15:02;29.50;19.30
64843;DHT22;51310;52.198;5.422;2022-08-14T17:20:22;29.60;20.70
64843;DHT22;51310;52.198;5.422;2022-08-14T17:22:51;29.60;20.30
64843;DHT22;51310;52.198;5.422;2022-08-14T17:25:26;29.40;21.10
64843;DHT22;51310;52.198;5.422;2022-08-14T17:28:15;29.30;20.90
64843;DHT22;51310;52.198;5.422;2022-08-14T17:33:24;29.20;21.30
64843;DHT22;51310;52.198;5.422;2022-08-14T17:36:19;29.20;22.00